Time;durP1;ratioP1;P1;durP2;ratioP2;P2;SDS_P1;SDS_P2;PMS_P1;PMS_P2;Temp;Humidity;BMP_temperature;BMP_pressure;BME280_temperature;BME280_humidity;BME280_pressure;Samples;Min_cycle;Max_cycle;Signal;HPM_P1;HPM_P2
2023/02/28 00:00:58;;;;;;;24.37;19.83;;;;;;;7.25;100.00;102370.34;2069059;28;20203;-62
2023/02/28 00:01:58;;;;;;;24.30;20.00;;;;;;;7.25;100.00;102373.09;2067571;28;20212;-62
2023/02/28 00:02:59;;;;;;;23.77;20.17;;;;;;;7.26;100.00;102378.25;2073510;28;20177;-63
2023/02/28 00:04:00;;;;;;;24.05;19.35;;;;;;;6.35;100.00;102225.03;2073498;28;20639;-62
2023/02/28 00:05:03;;;;;;;23.50;19.93;;;;;;;7.31;100.00;102379.88;2073690;28;20567;-62
2023/02/28 00:06:05;;;;;;;23.92;19.73;;;;;;;7.30;100.00;102372.78;2065568;28;20568;-63
2023/02/28 00:07:06;;;;;;;23.08;19.33;;;;;;;7.00;100.00;102319.47;2072825;28;20228;-62
2023/02/28 00:08:07;;;;;;;23.87;19.77;;;;;;;7.33;100.00;102380.34;2072683;28;20205;-62
2023/02/28 00:09:07;;;;;;;24.83;20.38;;;;;;;7.32;100.00;102376.78;2073448;28;20299;-63
2023/02/28 00:10:11;;;;;;;23.77;20.77;;;;;;;7.27;100.00;102368.81;2073112;28;20219;-63
2023/02/28 00:11:14;;;;;;;23.77;19.60;;;;;;;7.31;100.00;102386.22;2073519;28;20280;-62
2023/02/28 00:12:14;;;;;;;24.05;20.13;;;;;;;7.32;100.00;102384.25;2072695;28;20813;-62
2023/02/28 00:13:15;;;;;;;25.63;21.03;;;;;;;7.34;100.00;102379.94;2072084;28;20691;-63
2023/02/28 00:14:15;;;;;;;23.50;20.27;;;;;;;7.37;100.00;102389.44;2065088;28;20178;-63
2023/02/28 00:15:16;;;;;;;27.13;20.60;;;;;;;6.75;100.00;102291.50;2073891;28;20177;-62
2023/02/28 00:16:20;;;;;;;25.65;21.15;;;;;;;7.36;100.00;102387.84;2065866;28;20190;-62
2023/02/28 00:17:23;;;;;;;25.58;20.30;;;;;;;7.34;100.00;102407.53;2071892;28;20639;-62
2023/02/28 00:18:24;;;;;;;25.73;21.13;;;;;;;7.37;100.00;102390.25;2072718;28;20185;-63
2023/02/28 00:19:24;;;;;;;24.70;20.97;;;;;;;7.41;100.00;102387.56;2073287;28;20201;-62
2023/02/28 00:20:24;;;;;;;25.13;20.87;;;;;;;7.38;100.00;102389.09;2072903;28;20213;-62
2023/02/28 00:21:25;;;;;;;24.23;20.47;;;;;;;7.37;100.00;102390.25;2073323;28;20178;-62
2023/02/28 00:22:25;;;;;;;24.27;19.97;;;;;;;7.35;100.00;102386.28;2072677;28;20177;-62
2023/02/28 00:23:27;;;;;;;25.30;20.43;;;;;;;7.34;100.00;102390.97;2073284;28;20182;-62
2023/02/28 00:24:27;;;;;;;25.55;20.40;;;;;;;6.99;100.00;102338.00;2065699;28;20178;-62
2023/02/28 00:25:28;;;;;;;24.70;21.17;;;;;;;7.31;100.00;102383.47;2072348;28;20304;-62
2023/02/28 00:26:28;;;;;;;25.77;20.73;;;;;;;7.31;100.00;102399.19;2072701;28;20670;-63
2023/02/28 00:27:29;;;;;;;24.73;20.13;;;;;;;7.29;100.00;102399.56;2072425;28;20213;-62
2023/02/28 00:28:29;;;;;;;24.27;19.83;;;;;;;6.89;100.00;102340.53;2071958;28;20625;-62
2023/02/28 00:29:30;;;;;;;25.50;20.27;;;;;;;7.25;100.00;102395.16;2073274;28;20264;-62
2023/02/28 00:30:30;;;;;;;27.83;21.27;;;;;;;7.24;100.00;102397.13;2071785;28;20604;-62
2023/02/28 00:31:30;;;;;;;26.60;21.17;;;;;;;7.23;100.00;102403.78;2065433;28;20608;-62
2023/02/28 00:32:31;;;;;;;25.63;20.70;;;;;;;7.22;100.00;102407.72;2070118;28;20185;-62
2023/02/28 00:33:32;;;;;;;24.33;19.90;;;;;;;6.83;100.00;102353.81;2073009;28;20248;-63
2023/02/28 00:34:37;;;;;;;26.83;21.57;;;;;;;7.23;100.00;102414.81;2073172;28;20185;-62
2023/02/28 00:35:38;;;;;;;25.63;21.00;;;;;;;7.27;100.00;102409.34;2072516;28;20625;-62
2023/02/28 00:36:38;;;;;;;25.13;19.87;;;;;;;7.25;100.00;102418.03;2073271;28;20206;-62
2023/02/28 00:37:39;;;;;;;25.27;20.43;;;;;;;6.82;100.00;102345.94;2072441;28;20198;-63
2023/02/28 00:38:40;;;;;;;24.43;20.77;;;;;;;7.35;100.00;102416.63;2073412;28;20181;-62
2023/02/28 00:39:41;;;;;;;25.33;20.35;;;;;;;7.38;100.00;102413.91;2072102;28;20178;-63
2023/02/28 00:40:41;;;;;;;26.03;20.70;;;;;;;6.98;100.00;102365.91;2065350;28;20178;-62
2023/02/28 00:41:42;;;;;;;25.27;20.30;;;;;;;7.34;100.00;102417.78;2065457;28;20617;-63
2023/02/28 00:42:42;;;;;;;27.13;21.07;;;;;;;7.33;100.00;102414.22;2071564;28;20197;-63
2023/02/28 00:43:43;;;;;;;26.40;21.03;;;;;;;6.52;100.00;102282.38;2073185;28;20197;-62
2023/02/28 00:44:43;;;;;;;25.90;21.10;;;;;;;7.37;100.00;102422.53;2073289;28;20243;-62
2023/02/28 00:45:44;;;;;;;25.57;21.23;;;;;;;7.39;100.00;102423.00;2073070;28;20333;-62
2023/02/28 00:46:44;;;;;;;27.20;21.90;;;;;;;7.36;100.00;102412.69;2072755;28;21376;-63
2023/02/28 00:47:46;;;;;;;25.30;20.80;;;;;;;7.39;100.00;102418.25;2072464;28;20193;-62
2023/02/28 00:48:46;;;;;;;26.98;20.95;;;;;;;7.38;100.00;102424.16;2073194;28;20189;-62
2023/02/28 00:49:47;;;;;;;25.57;21.17;;;;;;;7.39;100.00;102414.72;2073420;28;20193;-62
2023/02/28 00:50:50;;;;;;;24.00;20.50;;;;;;;7.27;100.00;102420.41;2066319;28;20194;-62
2023/02/28 00:51:52;;;;;;;26.83;20.65;;;;;;;7.27;100.00;102418.44;2071152;28;20197;-62
2023/02/28 00:52:52;;;;;;;25.08;20.55;;;;;;;7.21;100.00;102416.34;2067567;28;20209;-62
2023/02/28 00:53:53;;;;;;;25.37;20.27;;;;;;;7.07;100.00;102427.13;2069216;28;20185;-62
2023/02/28 00:54:54;;;;;;;25.40;20.63;;;;;;;6.86;100.00;102421.19;2073042;28;20605;-62
2023/02/28 00:55:54;;;;;;;24.07;20.37;;;;;;;6.82;100.00;102420.34;2072867;28;20186;-62
2023/02/28 00:56:55;;;;;;;27.10;21.07;;;;;;;6.85;100.00;102420.41;2072885;28;20177;-62
2023/02/28 00:57:55;;;;;;;26.03;21.00;;;;;;;6.74;100.00;102400.13;2072887;28;20189;-62
2023/02/28 00:58:56;;;;;;;26.77;20.70;;;;;;;6.81;100.00;102425.03;2072845;28;20197;-62
2023/02/28 00:59:56;;;;;;;23.60;19.47;;;;;;;6.67;100.00;102419.25;2073101;28;20251;-62
2023/02/28 01:00:56;;;;;;;25.43;20.63;;;;;;;6.75;100.00;102422.94;2072651;28;20329;-62
2023/02/28 01:01:57;;;;;;;25.83;21.10;;;;;;;6.63;100.00;102406.56;2072413;28;20260;-62
2023/02/28 01:02:57;;;;;;;25.13;20.20;;;;;;;6.68;100.00;102420.84;2073110;28;20208;-62
2023/02/28 01:03:58;;;;;;;24.57;20.43;;;;;;;6.65;100.00;102421.56;2073057;28;20654;-62
2023/02/28 01:04:58;;;;;;;25.60;20.83;;;;;;;6.59;100.00;102424.97;2072767;28;20223;-62
2023/02/28 01:05:59;;;;;;;25.03;20.40;;;;;;;6.42;100.00;102417.91;2073302;28;20184;-62
2023/02/28 01:06:59;;;;;;;25.73;20.90;;;;;;;6.38;100.00;102419.81;2072914;28;20200;-62
2023/02/28 01:07:59;;;;;;;26.10;20.63;;;;;;;6.43;100.00;102418.72;2072532;28;20204;-62
2023/02/28 01:09:00;;;;;;;28.83;21.70;;;;;;;6.29;100.00;102408.22;2068265;28;20218;-62
2023/02/28 01:10:00;;;;;;;25.80;20.87;;;;;;;6.44;100.00;102418.38;2068567;28;20205;-62
2023/02/28 01:11:11;;;;;;;27.30;21.53;;;;;;;6.46;100.00;102413.28;2072809;28;23658;-62
2023/02/28 01:12:12;;;;;;;24.95;20.83;;;;;;;6.46;100.00;102429.81;2069838;28;20197;-62
2023/02/28 01:13:12;;;;;;;26.47;20.27;;;;;;;6.51;100.00;102413.00;2066436;28;20659;-62
2023/02/28 01:14:15;;;;;;;26.87;21.20;;;;;;;6.48;100.00;102416.50;2072327;28;20193;-62
2023/02/28 01:15:16;;;;;;;27.23;21.52;;;;;;;6.38;100.00;102402.50;2065342;28;20645;-62
2023/02/28 01:16:17;;;;;;;26.70;21.80;;;;;;;6.47;100.00;102411.34;2071927;28;20686;-62
2023/02/28 01:17:17;;;;;;;26.40;21.57;;;;;;;6.47;100.00;102419.59;2072618;28;20677;-62
2023/02/28 01:18:18;;;;;;;28.60;22.90;;;;;;;6.48;100.00;102438.53;2071893;28;20198;-62
2023/02/28 01:19:18;;;;;;;27.37;22.37;;;;;;;6.54;100.00;102420.56;2073231;28;20192;-62
2023/02/28 01:20:19;;;;;;;29.27;22.70;;;;;;;6.63;100.00;102440.44;2072704;28;20703;-62
2023/02/28 01:21:21;;;;;;;28.23;22.93;;;;;;;6.65;100.00;102418.81;2072846;28;20212;-62
2023/02/28 01:22:21;;;;;;;26.45;22.15;;;;;;;5.50;100.00;102237.38;2071116;28;20181;-62
2023/02/28 01:23:23;;;;;;;28.77;22.90;;;;;;;6.69;100.00;102418.88;2065356;28;20186;-62
2023/02/28 01:24:23;;;;;;;28.80;23.00;;;;;;;6.69;100.00;102418.88;2064967;28;20735;-62
2023/02/28 01:25:24;;;;;;;28.73;22.27;;;;;;;6.72;100.00;102420.94;2065020;28;20567;-62
2023/02/28 01:26:24;;;;;;;28.83;22.13;;;;;;;6.73;100.00;102415.06;2070387;28;20289;-62
2023/02/28 01:27:26;;;;;;;29.43;22.67;;;;;;;6.64;100.00;102400.69;2072673;28;20248;-62
2023/02/28 01:28:26;;;;;;;27.08;20.90;;;;;;;6.77;100.00;102418.66;2068642;28;20216;-62
2023/02/28 01:29:27;;;;;;;26.70;20.90;;;;;;;6.78;100.00;102422.22;2067178;28;20177;-62
2023/02/28 01:30:27;;;;;;;25.87;21.03;;;;;;;6.73;100.00;102426.06;2072746;28;20268;-62
2023/02/28 01:31:28;;;;;;;28.27;21.67;;;;;;;6.71;100.00;102422.88;2072697;28;20261;-62
2023/02/28 01:32:28;;;;;;;30.23;22.23;;;;;;;6.72;100.00;102424.47;2072643;28;20177;-62
2023/02/28 01:33:29;;;;;;;27.70;21.80;;;;;;;6.53;100.00;102394.19;2072848;28;20276;-62
2023/02/28 01:34:29;;;;;;;27.47;21.63;;;;;;;6.56;100.00;102409.97;2072317;28;20205;-62
2023/02/28 01:35:35;;;;;;;29.50;22.47;;;;;;;6.77;100.00;102426.16;2072735;28;20200;-63
2023/02/28 01:36:36;;;;;;;30.63;22.58;;;;;;;6.80;100.00;102431.72;2072711;28;20227;-62
2023/02/28 01:37:36;;;;;;;29.60;22.00;;;;;;;6.82;100.00;102423.88;2071971;28;20205;-63
2023/02/28 01:38:37;;;;;;;29.43;22.20;;;;;;;6.81;100.00;102430.56;2072436;28;20185;-62
2023/02/28 01:39:38;;;;;;;30.70;23.75;;;;;;;6.14;100.00;102331.97;2072530;28;20177;-62
2023/02/28 01:40:38;;;;;;;29.57;23.87;;;;;;;6.77;100.00;102426.16;2072984;28;20199;-62
2023/02/28 01:41:39;;;;;;;30.57;23.73;;;;;;;6.77;100.00;102426.94;2072737;28;20627;-62
2023/02/28 01:42:40;;;;;;;30.50;24.25;;;;;;;6.78;100.00;102422.22;2065498;28;20193;-62
2023/02/28 01:43:43;;;;;;;31.93;23.87;;;;;;;6.79;100.00;102426.56;2070268;28;20229;-62
2023/02/28 01:45:01;;;;;;;35.33;24.27;;;;;;;6.78;100.00;102430.50;2072727;28;20248;-63
2023/02/28 01:46:01;;;;;;;32.28;24.05;;;;;;;6.77;100.00;102426.16;2072323;28;20204;-62
2023/02/28 01:47:02;;;;;;;31.40;23.90;;;;;;;6.67;100.00;102423.97;2066786;28;20197;-62
2023/02/28 01:48:06;;;;;;;32.73;24.60;;;;;;;6.72;100.00;102429.19;2067445;28;20189;-62
2023/02/28 01:49:14;;;;;;;33.05;25.23;;;;;;;6.75;100.00;102423.75;2072938;28;20184;-63
2023/02/28 01:50:20;;;;;;;33.00;24.88;;;;;;;6.78;100.00;102423.03;2072476;28;20196;-63
2023/02/28 01:51:28;;;;;;;28.48;23.08;;;;;;;6.80;100.00;102428.16;2070265;28;20272;-62
2023/02/28 01:52:30;;;;;;;31.25;23.40;;;;;;;6.57;100.00;102395.03;2063853;28;20165;-63
2023/02/28 01:53:38;;;;;;;28.75;23.00;;;;;;;6.81;100.00;102427.81;2065808;28;20182;-63
2023/02/28 01:54:39;;;;;;;30.23;23.10;;;;;;;6.83;100.00;102425.47;2072550;28;20181;-62
2023/02/28 01:55:44;;;;;;;29.33;22.80;;;;;;;6.43;100.00;102355.38;2072577;28;20205;-62
2023/02/28 01:56:50;;;;;;;26.75;21.75;;;;;;;6.86;100.00;102446.81;2072873;28;20161;-62
2023/02/28 01:57:54;;;;;;;29.45;21.48;;;;;;;6.86;100.00;102427.50;2064489;28;20220;-62
2023/02/28 01:58:56;;;;;;;27.95;21.70;;;;;;;6.70;100.00;102406.69;2072643;28;20189;-62
2023/02/28 02:00:00;;;;;;;29.08;22.45;;;;;;;5.88;100.00;102287.78;2072684;28;20299;-62
2023/02/28 02:01:02;;;;;;;28.60;22.17;;;;;;;6.92;100.00;102428.81;2072333;28;20220;-62
2023/02/28 02:02:03;;;;;;;28.45;21.92;;;;;;;6.93;100.00;102429.63;2066663;28;20563;-62
2023/02/28 02:03:08;;;;;;;26.98;21.50;;;;;;;6.93;100.00;102421.34;2068697;28;20198;-63
2023/02/28 02:04:09;;;;;;;27.83;21.38;;;;;;;6.94;100.00;102422.94;2072643;28;20644;-62
2023/02/28 02:05:13;;;;;;;25.63;21.03;;;;;;;7.00;100.00;102425.03;2072573;28;20579;-62
2023/02/28 02:06:14;;;;;;;25.02;20.10;;;;;;;6.99;100.00;102431.72;2071964;28;20181;-63
2023/02/28 02:07:14;;;;;;;26.20;20.43;;;;;;;6.95;100.00;102422.56;2071471;28;20655;-62
2023/02/28 02:08:19;;;;;;;27.17;20.27;;;;;;;6.93;100.00;102426.84;2064237;28;20181;-62
2023/02/28 02:09:20;;;;;;;26.23;21.08;;;;;;;6.92;100.00;102431.56;2065044;28;20236;-62
2023/02/28 02:10:29;;;;;;;26.43;21.07;;;;;;;6.86;100.00;102427.50;2071976;28;20177;-62
2023/02/28 02:11:30;;;;;;;26.85;20.98;;;;;;;6.30;100.00;102351.97;2072404;28;20193;-62
2023/02/28 02:12:39;;;;;;;26.27;20.85;;;;;;;6.84;100.00;102427.09;2072168;28;20202;-62
2023/02/28 02:13:45;;;;;;;26.67;20.67;;;;;;;6.85;100.00;102431.44;2071626;28;20690;-62
2023/02/28 02:15:09;;;;;;;28.23;20.77;;;;;;;6.84;100.00;102438.09;2071552;28;20244;-62
2023/02/28 02:16:12;;;;;;;27.75;20.90;;;;;;;6.83;100.00;102428.22;2072646;28;20612;-62
2023/02/28 02:17:20;;;;;;;27.65;21.25;;;;;;;6.81;100.00;102430.56;2072355;28;20224;-62
2023/02/28 02:18:42;;;;;;;28.30;21.88;;;;;;;6.80;100.00;102433.66;2071853;28;20240;-62
2023/02/28 02:20:12;;;;;;;29.38;21.65;;;;;;;6.83;100.00;102430.19;2064761;28;20202;-63
2023/02/28 02:21:21;;;;;;;27.20;20.83;;;;;;;6.74;100.00;102430.44;2066616;28;20205;-62
2023/02/28 02:22:49;;;;;;;25.73;20.05;;;;;;;6.79;100.00;102432.06;2071653;28;20574;-62
2023/02/28 02:24:14;;;;;;;28.05;20.88;;;;;;;6.84;100.00;102435.34;2072250;28;20284;-62
2023/02/28 02:25:25;;;;;;;26.42;20.65;;;;;;;6.61;100.00;102379.38;2072636;28;20185;-62
2023/02/28 02:26:51;;;;;;;26.38;19.80;;;;;;;6.85;100.00;102425.91;2072188;28;20193;-62
2023/02/28 02:27:59;;;;;;;24.98;19.80;;;;;;;6.90;100.00;102428.38;2063990;28;20683;-63
2023/02/28 02:29:30;;;;;;;27.77;21.13;;;;;;;6.92;100.00;102431.56;2072643;28;20200;-62
2023/02/28 02:30:40;;;;;;;28.88;20.58;;;;;;;6.94;100.00;102428.44;2068843;28;20606;-62
2023/02/28 02:32:30;;;;;;;26.95;21.30;;;;;;;6.88;100.00;102430.69;2067558;28;20197;-62
2023/02/28 02:34:03;;;;;;;28.15;20.70;;;;;;;6.87;100.00;102431.06;2071763;28;20660;-62
2023/02/28 02:35:06;;;;;;;31.00;21.48;;;;;;;6.84;100.00;102427.09;2070841;28;20270;-63
2023/02/28 02:36:18;;;;;;;27.60;20.73;;;;;;;6.93;100.00;102426.84;2071166;28;20651;-62
2023/02/28 02:37:22;;;;;;;28.23;21.30;;;;;;;6.92;100.00;102425.28;2066554;28;20172;-62
2023/02/28 02:38:48;;;;;;;28.55;20.77;;;;;;;6.97;100.00;102425.75;2071596;28;20177;-63
2023/02/28 02:40:12;;;;;;;27.25;20.30;;;;;;;7.02;100.00;102441.22;2072157;28;20229;-62
2023/02/28 02:41:27;;;;;;;24.75;19.17;;;;;;;6.99;100.00;102428.97;2071656;28;20229;-62
2023/02/28 02:42:39;;;;;;;26.75;20.02;;;;;;;6.97;100.00;102425.75;2071799;28;20203;-62
2023/02/28 02:43:58;;;;;;;26.67;20.88;;;;;;;7.00;100.00;102427.78;2072342;28;20234;-62
2023/02/28 02:45:08;;;;;;;26.85;19.58;;;;;;;6.96;100.00;102432.44;2064086;28;20184;-62
2023/02/28 02:46:16;;;;;;;26.95;20.52;;;;;;;6.44;100.00;102340.44;2063943;28;20648;-62
2023/02/28 02:47:22;;;;;;;25.05;20.05;;;;;;;7.02;100.00;102422.69;2064493;28;20174;-62
2023/02/28 02:48:28;;;;;;;27.67;20.73;;;;;;;7.04;100.00;102422.34;2063795;28;20166;-62
2023/02/28 02:49:32;;;;;;;26.85;20.30;;;;;;;6.43;100.00;102325.09;2071983;28;20197;-63
2023/02/28 02:50:45;;;;;;;25.67;19.80;;;;;;;7.02;100.00;102414.44;2072213;28;20233;-62
2023/02/28 02:51:47;;;;;;;26.52;19.92;;;;;;;7.03;100.00;102404.22;2072297;28;20188;-62
2023/02/28 02:52:55;;;;;;;24.60;19.50;;;;;;;7.03;100.00;102410.50;2070914;28;20205;-62
2023/02/28 02:54:03;;;;;;;24.08;19.08;;;;;;;7.02;100.00;102397.88;2070802;28;20747;-62
2023/02/28 02:55:06;;;;;;;24.23;19.00;;;;;;;6.95;100.00;102396.97;2070749;28;20670;-62
2023/02/28 02:56:08;;;;;;;23.92;19.13;;;;;;;7.05;100.00;102393.59;2071917;28;20188;-62
2023/02/28 02:57:21;;;;;;;24.38;19.40;;;;;;;6.49;100.00;102309.88;2072246;28;20207;-62
2023/02/28 02:58:30;;;;;;;25.15;20.50;;;;;;;6.21;100.00;102263.28;2071280;28;20679;-63
2023/02/28 02:59:32;;;;;;;25.23;20.75;;;;;;;7.04;100.00;102400.28;2072144;28;20726;-62
2023/02/28 03:00:47;;;;;;;25.27;20.75;;;;;;;7.02;100.00;102406.16;2072221;28;20188;-63
2023/02/28 03:01:52;;;;;;;26.10;20.77;;;;;;;6.36;100.00;102314.72;2072286;28;20652;-63
2023/02/28 03:02:55;;;;;;;29.60;22.85;;;;;;;6.94;100.00;102418.22;2071692;28;20197;-62
2023/02/28 03:04:07;;;;;;;27.05;21.73;;;;;;;6.97;100.00;102417.47;2068282;28;20212;-63
2023/02/28 03:05:35;;;;;;;28.45;22.60;;;;;;;6.89;100.00;102410.25;2068512;28;20192;-62
2023/02/28 03:06:35;;;;;;;28.63;21.80;;;;;;;6.94;100.00;102423.75;2065443;28;20175;-63
2023/02/28 03:07:36;;;;;;;27.03;21.63;;;;;;;6.90;100.00;102425.63;2069136;28;20251;-62
2023/02/28 03:08:37;;;;;;;27.53;21.23;;;;;;;6.92;100.00;102431.56;2067860;28;20200;-62
2023/02/28 03:09:38;;;;;;;27.40;21.90;;;;;;;6.94;100.00;102428.44;2067417;28;20622;-62
2023/02/28 03:10:45;;;;;;;29.67;21.83;;;;;;;6.58;100.00;102384.81;2072132;28;20182;-62
2023/02/28 03:11:46;;;;;;;27.77;22.13;;;;;;;6.99;100.00;102440.00;2070086;28;20247;-62
2023/02/28 03:13:00;;;;;;;30.30;22.33;;;;;;;6.56;100.00;102368.66;2064927;28;20676;-62
2023/02/28 03:14:34;;;;;;;26.88;21.30;;;;;;;7.02;100.00;102432.94;2071590;28;20172;-63
2023/02/28 03:15:50;;;;;;;28.63;21.38;;;;;;;7.05;100.00;102452.31;2067345;28;20550;-62
2023/02/28 03:16:57;;;;;;;28.98;22.75;;;;;;;7.08;100.00;102451.56;2069878;28;20192;-63
2023/02/28 03:18:11;;;;;;;29.15;22.25;;;;;;;6.46;100.00;102349.16;2065938;28;20584;-63
2023/02/28 03:19:18;;;;;;;27.73;21.83;;;;;;;7.12;100.00;102449.69;2070531;28;20201;-62
2023/02/28 03:20:57;;;;;;;28.70;21.85;;;;;;;7.13;100.00;102462.28;2072070;28;20188;-62
2023/02/28 03:22:17;;;;;;;27.38;21.35;;;;;;;7.15;100.00;102453.66;2067429;28;20196;-62
2023/02/28 03:23:34;;;;;;;30.15;22.30;;;;;;;7.14;100.00;102454.84;2072183;28;20173;-62
2023/02/28 03:24:37;;;;;;;28.95;22.98;;;;;;;7.12;100.00;102457.16;2072045;28;20201;-62
2023/02/28 03:25:56;;;;;;;29.33;22.08;;;;;;;7.11;100.00;102469.34;2072032;28;20577;-62
2023/02/28 03:27:15;;;;;;;30.38;23.30;;;;;;;7.10;100.00;102468.56;2072008;28;20687;-62
2023/02/28 03:28:27;;;;;;;27.48;21.67;;;;;;;7.12;100.00;102468.97;2071699;28;20192;-62
2023/02/28 03:29:35;;;;;;;27.20;22.00;;;;;;;7.11;100.00;102472.91;2072164;28;20714;-63
2023/02/28 03:30:41;;;;;;;29.52;22.00;;;;;;;7.14;100.00;102472.19;2071979;28;20193;-62
2023/02/28 03:32:00;;;;;;;28.10;22.70;;;;;;;7.14;100.00;102472.19;2071941;28;20706;-63
2023/02/28 03:33:09;;;;;;;28.20;22.25;;;;;;;6.95;100.00;102460.34;2070497;28;20266;-63
2023/02/28 03:34:26;;;;;;;27.92;22.38;;;;;;;7.16;100.00;102472.59;2071955;28;20308;-63
2023/02/28 03:35:38;;;;;;;28.48;21.85;;;;;;;6.40;100.00;102351.41;2064882;28;20181;-63
2023/02/28 03:36:45;;;;;;;27.95;22.27;;;;;;;7.18;100.00;102495.09;2071041;28;20267;-63
2023/02/28 03:37:46;;;;;;;28.65;22.63;;;;;;;6.26;100.00;102339.31;2070243;28;20204;-62
2023/02/28 03:38:56;;;;;;;29.02;23.27;;;;;;;6.53;100.00;102383.16;2070170;28;20202;-62
2023/02/28 03:40:01;;;;;;;28.25;21.85;;;;;;;6.98;100.00;102476.97;2071923;28;20225;-63
2023/02/28 03:41:17;;;;;;;31.02;23.48;;;;;;;6.98;100.00;102484.44;2066060;28;20473;-63
2023/02/28 03:42:24;;;;;;;28.20;22.50;;;;;;;6.96;100.00;102479.28;2070704;28;20802;-63
2023/02/28 03:43:33;;;;;;;29.77;23.35;;;;;;;6.99;100.00;102483.28;2072095;28;20196;-62
2023/02/28 03:44:42;;;;;;;29.48;23.02;;;;;;;7.00;100.00;102482.13;2071970;28;20243;-62
2023/02/28 03:45:45;;;;;;;31.00;23.27;;;;;;;6.18;100.00;102357.63;2071932;28;20209;-62
2023/02/28 03:46:58;;;;;;;29.42;22.70;;;;;;;6.95;100.00;102485.16;2065913;28;20628;-62
2023/02/28 03:48:05;;;;;;;29.85;22.67;;;;;;;6.89;100.00;102479.16;2063445;28;20193;-62
2023/02/28 03:49:31;;;;;;;30.75;21.90;;;;;;;6.89;100.00;102481.09;2070406;28;20185;-62
2023/02/28 03:50:40;;;;;;;31.67;23.45;;;;;;;6.83;100.00;102485.31;2064250;28;20588;-62
2023/02/28 03:51:42;;;;;;;30.02;22.75;;;;;;;6.69;100.00;102485.00;2064367;28;20178;-62
2023/02/28 03:52:49;;;;;;;32.50;23.42;;;;;;;6.70;100.00;102492.09;2071035;28;20205;-62
2023/02/28 03:53:58;;;;;;;32.65;23.05;;;;;;;6.70;100.00;102490.16;2072020;28;20186;-62
2023/02/28 03:55:06;;;;;;;31.98;23.08;;;;;;;6.77;100.00;102484.00;2072184;28;20730;-63
2023/02/28 03:56:15;;;;;;;30.63;22.48;;;;;;;6.81;100.00;102493.16;2071896;28;20273;-62
2023/02/28 03:59:20;;;;;;;29.58;21.60;;;;;;;6.82;100.00;102492.78;2071821;28;20173;-63
2023/02/28 04:00:29;;;;;;;27.40;20.15;;;;;;;6.88;100.00;102490.53;2071720;28;20186;-62
2023/02/28 04:01:43;;;;;;;31.27;22.42;;;;;;;6.89;100.00;102498.44;2072095;28;20221;-62
2023/02/28 04:02:43;;;;;;;28.15;20.85;;;;;;;6.89;100.00;102500.41;2071347;28;20272;-62
2023/02/28 04:03:44;;;;;;;25.53;20.23;;;;;;;6.92;100.00;102499.69;2072039;28;20207;-62
2023/02/28 04:04:48;;;;;;;25.63;20.37;;;;;;;6.95;100.00;102502.50;2069671;28;20632;-62
2023/02/28 04:05:54;;;;;;;27.55;20.50;;;;;;;6.14;100.00;102372.47;2065290;28;20182;-62
2023/02/28 04:07:03;;;;;;;25.67;20.08;;;;;;;6.91;100.00;102496.13;2070847;28;20269;-62
2023/02/28 04:08:06;;;;;;;26.63;20.20;;;;;;;6.83;100.00;102496.34;2064047;28;20541;-62
2023/02/28 04:09:09;;;;;;;25.67;20.40;;;;;;;6.70;100.00;102470.06;2071614;28;20260;-62
2023/02/28 04:10:11;;;;;;;28.80;20.95;;;;;;;6.78;100.00;102513.16;2064245;28;20584;-62
2023/02/28 04:11:38;;;;;;;27.73;21.13;;;;;;;6.81;100.00;102487.66;2072060;28;20193;-62
2023/02/28 04:12:38;;;;;;;27.85;20.30;;;;;;;6.78;100.00;102472.63;2064264;28;20209;-63
2023/02/28 04:13:39;;;;;;;26.13;20.30;;;;;;;6.91;100.00;102495.31;2065727;28;20190;-62
2023/02/28 04:14:39;;;;;;;26.37;19.93;;;;;;;6.90;100.00;102493.72;2072956;28;20224;-62
2023/02/28 04:15:40;;;;;;;27.10;20.10;;;;;;;6.84;100.00;102487.72;2073083;28;20736;-62
2023/02/28 04:16:41;;;;;;;27.10;21.03;;;;;;;6.99;100.00;102495.13;2073140;28;20183;-62
2023/02/28 04:17:42;;;;;;;27.33;20.48;;;;;;;7.01;100.00;102505.75;2072683;28;20240;-62
2023/02/28 04:18:45;;;;;;;28.70;21.37;;;;;;;7.04;100.00;102502.28;2070238;28;20186;-62
2023/02/28 04:19:45;;;;;;;26.42;20.58;;;;;;;7.05;100.00;102506.63;2067729;28;20194;-62
2023/02/28 04:20:46;;;;;;;27.77;21.20;;;;;;;7.00;100.00;102507.72;2073150;28;20211;-62
2023/02/28 04:21:50;;;;;;;29.10;21.03;;;;;;;6.93;100.00;102513.06;2072979;28;20221;-62
2023/02/28 04:22:50;;;;;;;28.95;21.55;;;;;;;6.88;100.00;102507.06;2073374;28;20233;-62
2023/02/28 04:23:51;;;;;;;30.57;22.63;;;;;;;6.87;100.00;102514.53;2065780;28;20190;-62
2023/02/28 04:24:53;;;;;;;29.83;22.00;;;;;;;6.84;100.00;102508.94;2071848;28;20186;-62
2023/02/28 04:25:55;;;;;;;26.15;20.58;;;;;;;6.84;100.00;102511.72;2067684;28;20232;-62
2023/02/28 04:26:57;;;;;;;26.10;19.90;;;;;;;6.79;100.00;102520.25;2065422;28;20197;-62
2023/02/28 04:27:57;;;;;;;26.42;19.77;;;;;;;6.78;100.00;102516.72;2068102;28;20212;-62
2023/02/28 04:28:59;;;;;;;25.83;19.90;;;;;;;6.70;100.00;102511.41;2072215;28;20205;-62
2023/02/28 04:29:59;;;;;;;25.73;19.77;;;;;;;6.61;100.00;102511.59;2072487;28;20182;-62
2023/02/28 04:31:03;;;;;;;26.57;20.87;;;;;;;6.66;100.00;102518.81;2072953;28;20178;-62
2023/02/28 04:32:04;;;;;;;25.90;19.88;;;;;;;6.66;100.00;102510.53;2066536;28;20719;-62
2023/02/28 04:33:05;;;;;;;28.03;20.27;;;;;;;6.72;100.00;102520.91;2073316;28;20625;-62
2023/02/28 04:34:06;;;;;;;25.93;19.83;;;;;;;6.74;100.00;102515.84;2073190;28;20694;-63
2023/02/28 04:35:07;;;;;;;27.35;20.30;;;;;;;6.74;100.00;102523.28;2073224;28;20198;-62
2023/02/28 04:36:08;;;;;;;26.65;20.55;;;;;;;6.68;100.00;102514.53;2073080;28;20217;-63
2023/02/28 04:37:08;;;;;;;30.52;22.02;;;;;;;6.36;100.00;102490.97;2072979;28;20197;-63
2023/02/28 04:38:09;;;;;;;27.33;21.10;;;;;;;6.62;100.00;102504.94;2072849;28;20185;-63
2023/02/28 04:39:09;;;;;;;28.13;21.27;;;;;;;6.74;100.00;102513.09;2072929;28;20187;-63
2023/02/28 04:40:10;;;;;;;25.33;20.50;;;;;;;6.55;100.00;102476.44;2073612;28;20190;-62
2023/02/28 04:41:15;;;;;;;27.87;21.13;;;;;;;6.65;100.00;102498.72;2073344;28;20213;-62
2023/02/28 04:42:15;;;;;;;30.77;21.48;;;;;;;6.69;100.00;102513.38;2072802;28;20206;-63
2023/02/28 04:43:15;;;;;;;29.30;21.43;;;;;;;6.64;100.00;102504.56;2073081;28;20193;-63
2023/02/28 04:44:16;;;;;;;28.77;21.67;;;;;;;6.65;100.00;102506.97;2073137;28;20642;-62
2023/02/28 04:45:17;;;;;;;27.70;21.47;;;;;;;6.68;100.00;102502.69;2073208;28;20197;-62
2023/02/28 04:46:18;;;;;;;28.80;21.47;;;;;;;6.60;100.00;102487.16;2072983;28;20189;-62
2023/02/28 04:47:18;;;;;;;29.33;21.58;;;;;;;6.63;100.00;102514.81;2073037;28;20185;-62
2023/02/28 04:48:19;;;;;;;27.77;21.10;;;;;;;6.65;100.00;102504.22;2072299;28;20249;-63
2023/02/28 04:49:19;;;;;;;29.83;22.30;;;;;;;6.65;100.00;102511.69;2073723;28;20228;-62
2023/02/28 04:50:19;;;;;;;28.17;20.97;;;;;;;6.63;100.00;102505.75;2072891;28;20699;-62
2023/02/28 04:51:20;;;;;;;26.67;20.50;;;;;;;6.27;100.00;102473.06;2073259;28;20182;-62
2023/02/28 04:52:21;;;;;;;26.33;19.20;;;;;;;6.56;100.00;102513.84;2067435;28;20183;-63
2023/02/28 04:53:21;;;;;;;28.70;20.70;;;;;;;6.55;100.00;102518.56;2069069;28;20191;-62
2023/02/28 04:54:21;;;;;;;26.47;20.10;;;;;;;6.58;100.00;102509.59;2073073;28;20185;-62
2023/02/28 04:55:22;;;;;;;27.93;20.37;;;;;;;6.50;100.00;102502.31;2072867;28;20188;-62
2023/02/28 04:56:22;;;;;;;26.87;20.50;;;;;;;6.56;100.00;102522.13;2072976;28;20182;-63
2023/02/28 04:57:23;;;;;;;29.40;20.67;;;;;;;6.49;100.00;102513.69;2072730;28;20254;-67
2023/02/28 04:58:24;;;;;;;27.77;19.93;;;;;;;6.58;100.00;102517.03;2071049;28;20192;-67